Tropical Cyclones
[Index]
Season 2019-2020 Tropical Cyclone CLAUDIA Track Map
Season 2019-2020 Summaries (Operational Data): [AU] [SIO] [SPAC] [SH]
<<- Previous TC | 2019-2020 Season | Next TC ->>

click for intensity scale information  Lat/long Grid: Show Hide

 Date Labels: Show Hide

Operational Tropical Cyclone Data

Name: CLAUDIA
Number: 2007

04 Jan 2020 12:00 UTC to 19 Jan 2020 06:00 UTC

    date/time    lat    long     hPa   cat  kts
2020-01-04 12    8.0   133.4    1010         15          
2020-01-04 18    8.2   133.6    1010         15          
2020-01-05 00    8.6   134.0    1007         15          
2020-01-05 06    9.0   134.6    1006         20          
2020-01-05 12    9.4   135.3    1007         20          
2020-01-05 18    9.6   136.0    1003         20          
2020-01-06 00    9.7   136.5    1005         20          
2020-01-06 06    9.9   136.7    1004         25          
2020-01-06 12   10.6   137.1    1004         25          
2020-01-06 18   10.7   137.2    1004         25          
2020-01-07 00   10.8   137.5    1004         25          
2020-01-07 06   11.2   137.6    1001         25          
2020-01-07 12   11.3   137.0    1002         25          
2020-01-07 18   11.3   136.4    1002         25          
2020-01-08 00   11.3   135.8    1003         25          
2020-01-08 06   11.4   135.4    1002         25          
2020-01-08 12   11.5   135.0    1003         25          
2020-01-08 18   11.6   134.5    1001         25          
2020-01-09 00   11.7   133.9    1001         25          
2020-01-09 06   12.2   133.4    1002         20          
2020-01-09 12   12.3   132.7    1003         20          
2020-01-09 18   12.5   131.9    1001         20          
2020-01-10 00   12.6   130.9    1003         25          
2020-01-10 06   12.6   130.2    1001         25          
2020-01-10 12   12.8   129.8    1002         25          
2020-01-10 18   12.8   129.4    1001         25          
2020-01-11 00   12.9   128.1    1000         30          
2020-01-11 06   13.1   127.2    1000         30          
2020-01-11 12   13.2   126.3    1000    1    35          
2020-01-11 18   13.5   125.0     994    1    45          
2020-01-12 00   13.8   123.4     989    2    50          
2020-01-12 06   14.4   122.4     988    2    55          
2020-01-12 12   15.0   120.7     986    2    60          
2020-01-12 18   15.7   118.7     978    3    70          
2020-01-13 00   16.2   117.2     977    3    75          
2020-01-13 06   16.9   115.5     972    3    80          
2020-01-13 12   17.3   113.8     975    3    80          
2020-01-13 18   17.7   112.4     974    3    80          
2020-01-14 00   17.7   110.7     974    3    80          
2020-01-14 06   18.0   110.1     980    3    70          
2020-01-14 12   18.4   109.3     986    2    60          
2020-01-14 18   18.8   108.3     995    1    45          
2020-01-15 00   19.5   107.2     996    1    45          
2020-01-15 06   20.1   106.4     997    1    45          
2020-01-15 12   20.7   105.6     999    1    40          
2020-01-15 18   21.4   104.8    1001    1    35          
2020-01-16 00   21.8   104.1    1002    1    35          
2020-01-16 06   22.4   103.6    1004         25          
2020-01-16 12   23.1   103.3    1004         25          
2020-01-16 18   23.8   103.0    1004         20          
2020-01-17 00   24.5   102.7    1004         20          
2020-01-17 06   24.4   102.5    1007         20          
2020-01-17 12   24.0   102.1    1007         20          
2020-01-17 18   23.4   101.5    1007         20          
2020-01-18 00   23.1   100.3    1007         20          
2020-01-18 06   23.1    99.2    1007         20          
2020-01-18 12   23.1    98.2    1008         15          
2020-01-18 18   22.4    97.3    1009         15          
2020-01-19 00   21.9    96.6    1010         15          
2020-01-19 06   21.7    96.1    1010         15          
Winds are 10-min average.

Tropical cyclone tracks developed by Michael Bath using operational warnings and advisories and Google Maps.


Document: tropical_cyclone_claudia.htm
Updated: 17 June 2020
[Australian Severe Weather index] [Copyright Notice] [Email Contacts] [Search This Site] [Privacy Policy]


Main Index Home Page Stock Weather Photos Extreme Storms Discussion Storm News and Storm Chasing Reports Tropical Cyclones / Hurricanes / Typhoons Weather Data and Links Wild Fires / Bushfires Weather Observation Techniques Weather Picture Catalogue Tornado Pictures and Reports Stock Video Footage and DVDs for sale